South Byron, Wisconsin
Current Conditions -  °F | °C
As of 6:53 AM on Saturday 25 Oct 2014 (Local Time) from KFLD Reporting Station
Clear Clear  
Wind Chill: 54°   Ceiling: Unl
Heat Index: 54°   Visibility: 7mi
Dew Point: 50°   Wind: 10mph
Humidity: 86%   Direction: 270°W
Pressure: 29.87"   Gusts: NA
Location:  43.6092°N, 88.5191°W
Report Text: KFLD 251153Z AUTO 27009KT 7SM CLR 12/10 A2987 RMK AO2 SLP116 T01220100 10133 20106 52009
Loading
Personal Weather Stations






























Interactive Weather Map
Tropical Storm Tracking
New forecast layout! Learn more

10-Day Weather Forecast

Advertisements
Track Severe Weather on mobile